Accueil
METAR-TAF:

METAR-TAF

Aéroports :

Base aérienne 126 Solenzara

Solenzara, France

latitude: 41-55N, longitude: 009-24E, altitude: 8 m

Observation

Le bulletin a été fait il y a 32 minutes, à 21:30 UTC
Vent 5 kt de ouest, variant entre ouest/sud-ouest et ouest/nord-ouest
Température 15°C
Humidité 82%
Pression 1026 hPa
Visibilité 10 km ou plus
Nuages fragmentés à une hauteur de 1400 ft

METAR: LFKS 122130Z AUTO 27005KT 240V300 9999 BKN014 15/12 Q1026

Heure: 23:02 (22:02 UTC)

Prévision

Le bulletin a été fait il y a 8 heures et 2 minutes, à 14:00 UTC
Prévision valable du 12 à 15 UTC au 13 à 15 UTC
Vent 10 kt de sud/sud-est
Visibilité 10 km ou plus
Nuages épars à une hauteur de 3000 ft
Evoluant progressivement
du 12 à 17 UTC au 12 à 18 UTC
Vent 5 kt de ouest

TAF: LFKS 121400Z 1215/1315 16010KT 9999 SCT030 BECMG 1217/1218 28005KT

Observations et prévisions météorologiques de plus de 4000 aéroports (messages METAR et TAF).

Les stations disponibles sont représentées par des disques jaunes et rouges sur la carte.

Passer la souris dessus pour voir le nom de la station.

Cliquer dessus pour voir les observations et prévisions météorologiques.

Pour changer de carte: cliquez sur les boutons verts avec une croix noire pour zoomer, sur le bouton vert avec un tiret pour effectuer un zoom arrière, ou sur les flèches vertes pour les cartes adjacentes.


METAR-TAF: